Liberty Promise — WWMZ — position and weather

sailwx.info

Track history (hours):
 
Tides and Currents Weather Stations Pressure Air Temp Water Temp Dewpoint Dewpoint Depression Visibility Wind Speed Wind Dir Waves Ship Positions

Liberty Promise

Owner: LIBERTY PROMISE CORPORATION, LAKE SUCCESS, NY. More information available from US FCC via Universal Licensing System and Coast Guard Vessel Documentation Center.

Last reported at 2016-Feb-13 01:22 UTC. Time now 2016-Feb-13 06:51 UTC.
Position N 42°56' E 010°00'.

Length 200 m; draft 9 m.

Type: Cargo ship. MMSI: 366102000.

Date/timePositionNaut miles runAvg speedWind from/ knotsBaromVisibWave heightAir tempDewpointWater temp
2016-Feb-13 01:22N 42°56' E 010°00'1316.2
2016-Feb-13 00:33N 43°09' E 010°05'1616.1
2016-Feb-12 23:33N 43°25' E 010°10'10 9.9
2016-Feb-12 22:32N 43°33' E 010°18'0 0.1
2016-Feb-12 21:32N 43°33' E 010°18'0 0.0
2016-Feb-12 20:32N 43°33' E 010°18'0 0.0
2016-Feb-12 19:32N 43°33' E 010°18'0 0.0
2016-Feb-12 18:32N 43°33' E 010°18'0 0.0
2016-Feb-12 17:32N 43°33' E 010°18'0 0.0
2016-Feb-12 16:32N 43°33' E 010°18'0 0.0
2016-Feb-12 15:32N 43°33' E 010°18'0 0.0
2016-Feb-12 14:29N 43°33' E 010°18'0 0.0
2016-Feb-12 13:32N 43°33' E 010°18'0 0.0
2016-Feb-12 12:32N 43°33' E 010°18'0 0.0
2016-Feb-12 11:32N 43°33' E 010°18'0 0.0
2016-Feb-12 10:32N 43°33' E 010°18'6 6.1
2016-Feb-12 09:33N 43°29' E 010°12'3 3.4
2016-Feb-12 08:33N 43°27' E 010°09'2 1.7
2016-Feb-12 07:33N 43°26' E 010°06'2 2.1
2016-Feb-12 06:33N 43°26' E 010°09'8 8.1
2016-Feb-12 05:33N 43°20' E 010°02'1211.6
2016-Feb-12 04:33N 43°15' E 009°48'1312.5
2016-Feb-12 03:33N 43°11' E 009°31'1413.3
2016-Feb-12 02:28N 43°07' E 009°13'30114.2
2016-Feb-11 05:13N 40°23' E 003°34'1515.9
2016-Feb-11 04:19N 40°15' E 003°18'1215.8
2016-Feb-11 03:34N 40°09' E 003°05'1615.9
2016-Feb-11 02:33N 40°00' E 002°47'1616.3
2016-Feb-11 01:34N 39°51' E 002°30'1615.6
2016-Feb-11 00:34N 39°42' E 002°13'1515.2
2016-Feb-10 23:33N 39°33' E 001°57'1615.5
2016-Feb-10 22:33N 39°23' E 001°42'1616.1
2016-Feb-10 21:33N 39°12' E 001°26'3415.5
2016-Feb-10 19:21N 38°49' E 000°53'3016.6
2016-Feb-10 17:33N 38°27' E 000°29'1716.5
2016-Feb-10 16:33N 38°14' E 000°15'1716.6
2016-Feb-10 15:33N 38°02' E 000°01'1616.6
2016-Feb-10 14:33N 37°50' W 000°13'1716.8
2016-Feb-10 13:33N 37°37' W 000°27'1716.8
2016-Feb-10 12:33N 37°25' W 000°42'1716.7
2016-Feb-10 11:31N 37°14' W 000°59'21116.2
2016-Feb-09 22:33N 36°01' W 005°05'1918.9
2016-Feb-09 21:34N 35°57' W 005°27'19317.5
2016-Feb-09 10:31N 36°01' W 009°26'1717.1
2016-Feb-09 09:31N 36°03' W 009°46'64416.9
2016-Feb-07 19:21N 37°03' W 023°05'1316.1
2016-Feb-07 18:32N 37°11' W 023°17'1515.4
2016-Feb-07 17:33N 37°18' W 023°34'1817.6
2016-Feb-07 16:34N 37°21' W 023°55'1717.2
2016-Feb-07 15:33N 37°23' W 024°17'1717.2
2016-Feb-07 14:34N 37°25' W 024°38'1717.4
2016-Feb-07 13:34N 37°27' W 025°00'1817.5
2016-Feb-07 12:34N 37°28' W 025°22'1817.5
2016-Feb-07 11:34N 37°27' W 025°44'1817.6
2016-Feb-07 10:34N 37°26' W 026°06'1717.2
2016-Feb-07 09:33N 37°24' W 026°28'1717.4
2016-Feb-07 08:34N 37°23' W 026°50'1717.5
2016-Feb-07 07:34N 37°22' W 027°12'1817.9
2016-Feb-07 06:32N 37°21' W 027°35'1818.0
2016-Feb-07 05:32N 37°21' W 027°58'1818.2
2016-Feb-07 04:34N 37°21' W 028°20'1818.2
2016-Feb-07 03:34N 37°21' W 028°43'1818.2
2016-Feb-07 02:33N 37°21' W 029°06'1818.0
2016-Feb-07 01:33N 37°21' W 029°28'1817.8
2016-Feb-07 00:33N 37°21' W 029°51'  
Track history (hours):
 
Tides and Currents Weather Stations Pressure Air Temp Water Temp Dewpoint Dewpoint Depression Visibility Wind Speed Wind Dir Waves Ship Positions

Liberty Promise

Owner: LIBERTY PROMISE CORPORATION, LAKE SUCCESS, NY. More information available from US FCC via Universal Licensing System and Coast Guard Vessel Documentation Center.

Last reported at 2016-Feb-13 01:22 UTC. Time now 2016-Feb-13 06:51 UTC.
Position N 42°56' E 010°00'.

Length 200 m; draft 9 m.

Type: Cargo ship. MMSI: 366102000.

Date/timePositionNaut miles runAvg speedWind from/ knotsBaromVisibWave heightAir tempDewpointWater temp
2016-Feb-13 01:22N 42°56' E 010°00'1316.2
2016-Feb-13 00:33N 43°09' E 010°05'1616.1
2016-Feb-12 23:33N 43°25' E 010°10'10 9.9
2016-Feb-12 22:32N 43°33' E 010°18'0 0.1
2016-Feb-12 21:32N 43°33' E 010°18'0 0.0
2016-Feb-12 20:32N 43°33' E 010°18'0 0.0
2016-Feb-12 19:32N 43°33' E 010°18'0 0.0
2016-Feb-12 18:32N 43°33' E 010°18'0 0.0
2016-Feb-12 17:32N 43°33' E 010°18'0 0.0
2016-Feb-12 16:32N 43°33' E 010°18'0 0.0
2016-Feb-12 15:32N 43°33' E 010°18'0 0.0
2016-Feb-12 14:29N 43°33' E 010°18'0 0.0
2016-Feb-12 13:32N 43°33' E 010°18'0 0.0
2016-Feb-12 12:32N 43°33' E 010°18'0 0.0
2016-Feb-12 11:32N 43°33' E 010°18'0 0.0
2016-Feb-12 10:32N 43°33' E 010°18'6 6.1
2016-Feb-12 09:33N 43°29' E 010°12'3 3.4
2016-Feb-12 08:33N 43°27' E 010°09'2 1.7
2016-Feb-12 07:33N 43°26' E 010°06'2 2.1
2016-Feb-12 06:33N 43°26' E 010°09'8 8.1
2016-Feb-12 05:33N 43°20' E 010°02'1211.6
2016-Feb-12 04:33N 43°15' E 009°48'1312.5
2016-Feb-12 03:33N 43°11' E 009°31'1413.3
2016-Feb-12 02:28N 43°07' E 009°13'30114.2
2016-Feb-11 05:13N 40°23' E 003°34'1515.9
2016-Feb-11 04:19N 40°15' E 003°18'1215.8
2016-Feb-11 03:34N 40°09' E 003°05'1615.9
2016-Feb-11 02:33N 40°00' E 002°47'1616.3
2016-Feb-11 01:34N 39°51' E 002°30'1615.6
2016-Feb-11 00:34N 39°42' E 002°13'1515.2
2016-Feb-10 23:33N 39°33' E 001°57'1615.5
2016-Feb-10 22:33N 39°23' E 001°42'1616.1
2016-Feb-10 21:33N 39°12' E 001°26'3415.5
2016-Feb-10 19:21N 38°49' E 000°53'3016.6
2016-Feb-10 17:33N 38°27' E 000°29'1716.5
2016-Feb-10 16:33N 38°14' E 000°15'1716.6
2016-Feb-10 15:33N 38°02' E 000°01'1616.6
2016-Feb-10 14:33N 37°50' W 000°13'1716.8
2016-Feb-10 13:33N 37°37' W 000°27'1716.8
2016-Feb-10 12:33N 37°25' W 000°42'1716.7
2016-Feb-10 11:31N 37°14' W 000°59'21116.2
2016-Feb-09 22:33N 36°01' W 005°05'1918.9
2016-Feb-09 21:34N 35°57' W 005°27'19317.5
2016-Feb-09 10:31N 36°01' W 009°26'1717.1
2016-Feb-09 09:31N 36°03' W 009°46'64416.9
2016-Feb-07 19:21N 37°03' W 023°05'1316.1
2016-Feb-07 18:32N 37°11' W 023°17'1515.4
2016-Feb-07 17:33N 37°18' W 023°34'1817.6
2016-Feb-07 16:34N 37°21' W 023°55'1717.2
2016-Feb-07 15:33N 37°23' W 024°17'1717.2
2016-Feb-07 14:34N 37°25' W 024°38'1717.4
2016-Feb-07 13:34N 37°27' W 025°00'1817.5
2016-Feb-07 12:34N 37°28' W 025°22'1817.5
2016-Feb-07 11:34N 37°27' W 025°44'1817.6
2016-Feb-07 10:34N 37°26' W 026°06'1717.2
2016-Feb-07 09:33N 37°24' W 026°28'1717.4
2016-Feb-07 08:34N 37°23' W 026°50'1717.5
2016-Feb-07 07:34N 37°22' W 027°12'1817.9
2016-Feb-07 06:32N 37°21' W 027°35'1818.0
2016-Feb-07 05:32N 37°21' W 027°58'1818.2
2016-Feb-07 04:34N 37°21' W 028°20'1818.2
2016-Feb-07 03:34N 37°21' W 028°43'1818.2
2016-Feb-07 02:33N 37°21' W 029°06'1818.0
2016-Feb-07 01:33N 37°21' W 029°28'1817.8
2016-Feb-07 00:33N 37°21' W 029°51'  

Dump ship's entire track history